sensor_id;sensor_type;location;lat;lon;timestamp;pressure;altitude;pressure_sealevel;temperature;humidity
80574;BME280;69929;52.390;13.078;2023-05-23T00:01:00;100880.34;;;16.26;50.74
80574;BME280;69929;52.390;13.078;2023-05-23T00:03:27;100875.34;;;16.22;51.02
80574;BME280;69929;52.390;13.078;2023-05-23T00:05:56;100876.59;;;16.16;51.22
80574;BME280;69929;52.390;13.078;2023-05-23T00:08:24;100877.56;;;16.15;51.39
80574;BME280;69929;52.390;13.078;2023-05-23T00:10:51;100869.97;;;16.09;51.81
80574;BME280;69929;52.390;13.078;2023-05-23T00:13:17;100871.88;;;16.07;51.94
80574;BME280;69929;52.390;13.078;2023-05-23T00:15:44;100878.59;;;16.00;51.63
80574;BME280;69929;52.390;13.078;2023-05-23T00:18:11;100874.19;;;15.99;51.75
80574;BME280;69929;52.390;13.078;2023-05-23T00:20:40;100869.09;;;15.95;51.82
80574;BME280;69929;52.390;13.078;2023-05-23T00:23:08;100860.13;;;15.96;51.81
80574;BME280;69929;52.390;13.078;2023-05-23T00:25:36;100863.88;;;15.94;51.59
80574;BME280;69929;52.390;13.078;2023-05-23T00:28:03;100865.84;;;15.90;51.69
80574;BME280;69929;52.390;13.078;2023-05-23T00:30:32;100857.97;;;15.89;51.97
80574;BME280;69929;52.390;13.078;2023-05-23T00:32:59;100859.22;;;15.83;52.80
80574;BME280;69929;52.390;13.078;2023-05-23T00:35:26;100863.06;;;15.79;52.85
80574;BME280;69929;52.390;13.078;2023-05-23T00:37:53;100863.16;;;15.77;53.15
80574;BME280;69929;52.390;13.078;2023-05-23T00:40:21;100853.53;;;15.75;53.46
80574;BME280;69929;52.390;13.078;2023-05-23T00:42:48;100852.69;;;15.74;53.77
80574;BME280;69929;52.390;13.078;2023-05-23T00:45:17;100847.66;;;15.70;53.45
80574;BME280;69929;52.390;13.078;2023-05-23T00:47:43;100859.03;;;15.72;53.55
80574;BME280;69929;52.390;13.078;2023-05-23T00:50:12;100857.03;;;15.75;53.42
80574;BME280;69929;52.390;13.078;2023-05-23T00:52:44;100852.00;;;15.71;53.95
80574;BME280;69929;52.390;13.078;2023-05-23T00:55:11;100856.13;;;15.62;53.77
80574;BME280;69929;52.390;13.078;2023-05-23T00:57:39;100849.41;;;15.56;53.18
80574;BME280;69929;52.390;13.078;2023-05-23T01:00:07;100844.38;;;15.52;53.06
80574;BME280;69929;52.390;13.078;2023-05-23T01:02:45;100854.38;;;15.48;52.96
80574;BME280;69929;52.390;13.078;2023-05-23T01:05:14;100850.19;;;15.44;53.47
80574;BME280;69929;52.390;13.078;2023-05-23T01:07:44;100851.13;;;15.43;53.88
80574;BME280;69929;52.390;13.078;2023-05-23T01:10:12;100846.03;;;15.40;53.66
80574;BME280;69929;52.390;13.078;2023-05-23T01:15:29;100842.19;;;15.44;53.25
80574;BME280;69929;52.390;13.078;2023-05-23T01:20:38;100838.50;;;15.47;53.43
80574;BME280;69929;52.390;13.078;2023-05-23T01:23:35;100846.06;;;15.53;53.67
80574;BME280;69929;52.390;13.078;2023-05-23T01:29:03;100845.91;;;15.69;53.72
80574;BME280;69929;52.390;13.078;2023-05-23T01:31:42;100848.28;;;15.73;53.40
80574;BME280;69929;52.390;13.078;2023-05-23T01:34:12;100863.09;;;15.65;52.59
80574;BME280;69929;52.390;13.078;2023-05-23T01:36:41;100865.41;;;15.42;52.06
80574;BME280;69929;52.390;13.078;2023-05-23T01:39:08;100855.69;;;15.55;51.62
80574;BME280;69929;52.390;13.078;2023-05-23T01:41:35;100835.66;;;15.63;51.99
80574;BME280;69929;52.390;13.078;2023-05-23T01:44:02;100835.06;;;15.72;51.74
80574;BME280;69929;52.390;13.078;2023-05-23T01:46:31;100848.97;;;15.77;51.57
80574;BME280;69929;52.390;13.078;2023-05-23T01:49:00;100855.19;;;15.90;51.31
80574;BME280;69929;52.390;13.078;2023-05-23T01:51:28;100853.91;;;15.83;51.02
80574;BME280;69929;52.390;13.078;2023-05-23T01:53:56;100840.56;;;15.83;51.09
80574;BME280;69929;52.390;13.078;2023-05-23T01:56:23;100848.56;;;15.83;51.26
80574;BME280;69929;52.390;13.078;2023-05-23T01:58:50;100835.34;;;15.82;52.20
80574;BME280;69929;52.390;13.078;2023-05-23T02:01:17;100842.28;;;15.84;51.77
80574;BME280;69929;52.390;13.078;2023-05-23T02:03:44;100831.63;;;15.84;51.97
80574;BME280;69929;52.390;13.078;2023-05-23T02:06:10;100832.19;;;15.89;51.94
80574;BME280;69929;52.390;13.078;2023-05-23T02:08:37;100827.38;;;15.94;52.14
80574;BME280;69929;52.390;13.078;2023-05-23T02:11:04;100821.13;;;15.95;52.17
80574;BME280;69929;52.390;13.078;2023-05-23T02:13:30;100823.69;;;15.97;52.08
80574;BME280;69929;52.390;13.078;2023-05-23T02:15:57;100824.53;;;15.98;52.50
80574;BME280;69929;52.390;13.078;2023-05-23T02:18:23;100817.38;;;15.98;52.55
80574;BME280;69929;52.390;13.078;2023-05-23T02:20:51;100819.00;;;16.01;52.39
80574;BME280;69929;52.390;13.078;2023-05-23T02:23:18;100813.44;;;16.04;52.50
80574;BME280;69929;52.390;13.078;2023-05-23T02:25:44;100815.88;;;16.07;52.32
80574;BME280;69929;52.390;13.078;2023-05-23T02:28:11;100813.78;;;16.12;52.20
80574;BME280;69929;52.390;13.078;2023-05-23T02:30:38;100813.78;;;16.12;52.46
80574;BME280;69929;52.390;13.078;2023-05-23T02:33:05;100808.34;;;16.13;52.85
80574;BME280;69929;52.390;13.078;2023-05-23T02:35:32;100816.88;;;16.19;52.31
80574;BME280;69929;52.390;13.078;2023-05-23T02:37:59;100809.19;;;16.14;52.81
80574;BME280;69929;52.390;13.078;2023-05-23T02:40:26;100807.69;;;16.10;52.68
80574;BME280;69929;52.390;13.078;2023-05-23T02:42:52;100809.41;;;16.11;52.36
80574;BME280;69929;52.390;13.078;2023-05-23T02:45:22;100815.38;;;16.14;52.24
80574;BME280;69929;52.390;13.078;2023-05-23T02:47:49;100819.66;;;16.17;51.56
80574;BME280;69929;52.390;13.078;2023-05-23T02:50:16;100817.94;;;16.16;52.39
80574;BME280;69929;52.390;13.078;2023-05-23T02:52:43;100824.00;;;16.18;53.07
80574;BME280;69929;52.390;13.078;2023-05-23T02:55:10;100832.75;;;16.07;54.36
80574;BME280;69929;52.390;13.078;2023-05-23T02:57:36;100832.63;;;15.96;57.84
80574;BME280;69929;52.390;13.078;2023-05-23T03:00:03;100830.66;;;15.85;58.22
80574;BME280;69929;52.390;13.078;2023-05-23T03:02:30;100822.69;;;15.71;58.03
80574;BME280;69929;52.390;13.078;2023-05-23T03:04:56;100809.00;;;15.63;59.47
80574;BME280;69929;52.390;13.078;2023-05-23T03:07:23;100811.13;;;15.57;59.33
80574;BME280;69929;52.390;13.078;2023-05-23T03:09:54;100801.75;;;15.52;59.41
80574;BME280;69929;52.390;13.078;2023-05-23T03:12:21;100793.13;;;15.48;60.50
80574;BME280;69929;52.390;13.078;2023-05-23T03:14:47;100786.06;;;15.47;59.81
80574;BME280;69929;52.390;13.078;2023-05-23T03:17:14;100782.47;;;15.48;59.32
80574;BME280;69929;52.390;13.078;2023-05-23T03:19:41;100780.53;;;15.50;59.88
80574;BME280;69929;52.390;13.078;2023-05-23T03:22:08;100778.13;;;15.60;59.29
80574;BME280;69929;52.390;13.078;2023-05-23T03:24:34;100778.56;;;15.67;59.07
80574;BME280;69929;52.390;13.078;2023-05-23T03:27:01;100773.03;;;15.70;58.82
80574;BME280;69929;52.390;13.078;2023-05-23T03:29:28;100769.28;;;15.72;57.15
80574;BME280;69929;52.390;13.078;2023-05-23T03:31:54;100769.91;;;15.77;54.81
80574;BME280;69929;52.390;13.078;2023-05-23T03:34:21;100773.94;;;15.83;54.83
80574;BME280;69929;52.390;13.078;2023-05-23T03:36:49;100787.72;;;15.90;54.30
80574;BME280;69929;52.390;13.078;2023-05-23T03:39:16;100791.47;;;15.87;53.93
80574;BME280;69929;52.390;13.078;2023-05-23T03:41:42;100793.88;;;15.90;53.73
80574;BME280;69929;52.390;13.078;2023-05-23T03:44:09;100800.00;;;15.92;53.29
80574;BME280;69929;52.390;13.078;2023-05-23T03:46:36;100791.00;;;15.93;53.31
80574;BME280;69929;52.390;13.078;2023-05-23T03:49:04;100797.03;;;15.97;52.97
80574;BME280;69929;52.390;13.078;2023-05-23T03:51:31;100793.16;;;16.01;52.90
80574;BME280;69929;52.390;13.078;2023-05-23T03:53:57;100792.13;;;16.04;53.43
80574;BME280;69929;52.390;13.078;2023-05-23T03:56:24;100792.34;;;16.01;53.58
80574;BME280;69929;52.390;13.078;2023-05-23T03:58:51;100795.94;;;16.00;54.19
80574;BME280;69929;52.390;13.078;2023-05-23T04:01:18;100799.56;;;15.99;54.34
80574;BME280;69929;52.390;13.078;2023-05-23T04:03:44;100811.94;;;16.00;54.24
80574;BME280;69929;52.390;13.078;2023-05-23T04:06:11;100820.69;;;16.02;54.75
80574;BME280;69929;52.390;13.078;2023-05-23T04:08:39;100819.28;;;15.96;55.54
80574;BME280;69929;52.390;13.078;2023-05-23T04:11:07;100821.13;;;15.95;55.98
80574;BME280;69929;52.390;13.078;2023-05-23T04:13:34;100818.53;;;15.94;56.46
80574;BME280;69929;52.390;13.078;2023-05-23T04:16:01;100816.53;;;15.98;56.75
80574;BME280;69929;52.390;13.078;2023-05-23T04:18:31;100817.28;;;16.00;56.59
80574;BME280;69929;52.390;13.078;2023-05-23T04:21:04;100815.34;;;16.02;56.78
80574;BME280;69929;52.390;13.078;2023-05-23T04:23:31;100814.19;;;16.06;57.72
80574;BME280;69929;52.390;13.078;2023-05-23T04:25:57;100820.91;;;16.11;58.11
80574;BME280;69929;52.390;13.078;2023-05-23T04:28:25;100817.94;;;16.16;58.09
80574;BME280;69929;52.390;13.078;2023-05-23T04:30:53;100815.16;;;16.18;57.82
80574;BME280;69929;52.390;13.078;2023-05-23T04:33:19;100823.69;;;16.23;57.55
80574;BME280;69929;52.390;13.078;2023-05-23T04:35:46;100819.44;;;16.20;57.29
80574;BME280;69929;52.390;13.078;2023-05-23T04:38:14;100816.00;;;16.18;56.41
80574;BME280;69929;52.390;13.078;2023-05-23T04:40:41;100818.13;;;16.00;57.02
80574;BME280;69929;52.390;13.078;2023-05-23T04:43:07;100823.63;;;15.84;58.24
80574;BME280;69929;52.390;13.078;2023-05-23T04:45:35;100825.78;;;15.65;59.48
80574;BME280;69929;52.390;13.078;2023-05-23T04:48:02;100822.22;;;15.51;60.67
80574;BME280;69929;52.390;13.078;2023-05-23T04:50:29;100818.41;;;15.41;60.45
80574;BME280;69929;52.390;13.078;2023-05-23T04:52:58;100819.75;;;15.48;61.27
80574;BME280;69929;52.390;13.078;2023-05-23T04:55:25;100812.16;;;15.42;60.44
80574;BME280;69929;52.390;13.078;2023-05-23T04:57:52;100812.31;;;15.53;60.96
80574;BME280;69929;52.390;13.078;2023-05-23T05:00:18;100817.25;;;15.59;60.50
80574;BME280;69929;52.390;13.078;2023-05-23T05:02:45;100809.59;;;15.68;59.96
80574;BME280;69929;52.390;13.078;2023-05-23T05:05:12;100806.50;;;15.74;59.55
80574;BME280;69929;52.390;13.078;2023-05-23T05:07:38;100812.19;;;15.82;59.98
80574;BME280;69929;52.390;13.078;2023-05-23T05:10:06;100815.31;;;15.89;59.84
80574;BME280;69929;52.390;13.078;2023-05-23T05:12:32;100808.94;;;15.91;58.88
80574;BME280;69929;52.390;13.078;2023-05-23T05:15:01;100815.53;;;15.99;58.99
80574;BME280;69929;52.390;13.078;2023-05-23T05:17:28;100809.81;;;16.05;58.73
80574;BME280;69929;52.390;13.078;2023-05-23T05:19:55;100814.72;;;16.11;58.81
80574;BME280;69929;52.390;13.078;2023-05-23T05:22:22;100818.53;;;16.07;58.88
80574;BME280;69929;52.390;13.078;2023-05-23T05:24:49;100820.38;;;16.06;58.42
80574;BME280;69929;52.390;13.078;2023-05-23T05:27:15;100809.81;;;16.05;57.15
80574;BME280;69929;52.390;13.078;2023-05-23T05:29:42;100817.59;;;16.08;57.58
80574;BME280;69929;52.390;13.078;2023-05-23T05:32:09;100820.38;;;16.06;57.50
80574;BME280;69929;52.390;13.078;2023-05-23T05:34:35;100821.88;;;16.10;57.02
80574;BME280;69929;52.390;13.078;2023-05-23T05:37:03;100819.75;;;16.15;57.04
80574;BME280;69929;52.390;13.078;2023-05-23T05:39:30;100813.59;;;16.15;56.84
80574;BME280;69929;52.390;13.078;2023-05-23T05:41:56;100805.13;;;16.21;56.61
80574;BME280;69929;52.390;13.078;2023-05-23T05:44:22;100813.13;;;16.21;56.69
80574;BME280;69929;52.390;13.078;2023-05-23T05:46:49;100813.13;;;16.21;56.93
80574;BME280;69929;52.390;13.078;2023-05-23T05:49:17;100819.66;;;16.17;56.46
80574;BME280;69929;52.390;13.078;2023-05-23T05:51:43;100821.25;;;16.20;56.57
80574;BME280;69929;52.390;13.078;2023-05-23T05:54:10;100819.25;;;16.23;56.10
80574;BME280;69929;52.390;13.078;2023-05-23T05:56:36;100822.00;;;16.34;55.40
80574;BME280;69929;52.390;13.078;2023-05-23T05:59:03;100813.38;;;16.44;55.09
80574;BME280;69929;52.390;13.078;2023-05-23T06:01:29;100817.97;;;16.42;55.46
80574;BME280;69929;52.390;13.078;2023-05-23T06:03:56;100824.38;;;16.65;54.76
80574;BME280;69929;52.390;13.078;2023-05-23T06:06:24;100824.78;;;16.72;54.51
80574;BME280;69929;52.390;13.078;2023-05-23T06:08:50;100821.81;;;16.63;54.85
80574;BME280;69929;52.390;13.078;2023-05-23T06:11:17;100818.81;;;16.81;54.75
80574;BME280;69929;52.390;13.078;2023-05-23T06:13:43;100819.38;;;16.86;54.52
80574;BME280;69929;52.390;13.078;2023-05-23T06:16:10;100825.00;;;16.94;54.46
80574;BME280;69929;52.390;13.078;2023-05-23T06:18:37;100828.84;;;16.90;54.49
80574;BME280;69929;52.390;13.078;2023-05-23T06:21:03;100814.97;;;16.85;54.13
80574;BME280;69929;52.390;13.078;2023-05-23T06:23:30;100821.38;;;16.69;54.85
80574;BME280;69929;52.390;13.078;2023-05-23T06:25:57;100836.13;;;16.88;54.69
80574;BME280;69929;52.390;13.078;2023-05-23T06:28:24;100839.31;;;16.93;54.99
80574;BME280;69929;52.390;13.078;2023-05-23T06:30:51;100832.50;;;16.89;54.34
80574;BME280;69929;52.390;13.078;2023-05-23T06:33:17;100828.84;;;16.90;54.60
80574;BME280;69929;52.390;13.078;2023-05-23T06:35:44;100832.91;;;16.83;54.93
80574;BME280;69929;52.390;13.078;2023-05-23T06:38:10;100841.66;;;16.85;54.87
80574;BME280;69929;52.390;13.078;2023-05-23T06:40:37;100841.13;;;16.67;55.17
80574;BME280;69929;52.390;13.078;2023-05-23T06:43:03;100835.03;;;16.78;55.11
80574;BME280;69929;52.390;13.078;2023-05-23T06:45:30;100842.09;;;16.79;55.52
80574;BME280;69929;52.390;13.078;2023-05-23T06:47:56;100831.84;;;16.73;55.99
80574;BME280;69929;52.390;13.078;2023-05-23T06:50:25;100836.09;;;16.75;55.70
80574;BME280;69929;52.390;13.078;2023-05-23T06:52:51;100841.22;;;16.65;56.31
80574;BME280;69929;52.390;13.078;2023-05-23T06:55:18;100834.63;;;16.84;55.84
80574;BME280;69929;52.390;13.078;2023-05-23T06:57:45;100841.44;;;16.75;56.24
80574;BME280;69929;52.390;13.078;2023-05-23T07:00:12;100843.38;;;16.86;55.95
80574;BME280;69929;52.390;13.078;2023-05-23T07:02:39;100835.56;;;16.83;56.24
80574;BME280;69929;52.390;13.078;2023-05-23T07:05:06;100842.97;;;16.92;55.92
80574;BME280;69929;52.390;13.078;2023-05-23T07:07:33;100844.22;;;16.99;56.15
80574;BME280;69929;52.390;13.078;2023-05-23T07:09:59;100846.59;;;16.91;56.32
80574;BME280;69929;52.390;13.078;2023-05-23T07:12:26;100842.94;;;16.66;57.12
80574;BME280;69929;52.390;13.078;2023-05-23T07:14:53;100840.38;;;16.65;56.72
80574;BME280;69929;52.390;13.078;2023-05-23T07:17:19;100844.66;;;16.67;57.18
80574;BME280;69929;52.390;13.078;2023-05-23T07:19:46;100844.44;;;16.96;56.70
80574;BME280;69929;52.390;13.078;2023-05-23T07:22:12;100838.66;;;17.02;56.08
80574;BME280;69929;52.390;13.078;2023-05-23T07:24:39;100846.91;;;16.99;56.92
80574;BME280;69929;52.390;13.078;2023-05-23T07:27:05;100840.81;;;16.97;57.47
80574;BME280;69929;52.390;13.078;2023-05-23T07:29:32;100844.63;;;17.06;57.79
80574;BME280;69929;52.390;13.078;2023-05-23T07:31:58;100839.63;;;17.01;58.10
80574;BME280;69929;52.390;13.078;2023-05-23T07:34:25;100835.47;;;16.97;58.29
80574;BME280;69929;52.390;13.078;2023-05-23T07:36:54;100847.19;;;17.20;57.60
80574;BME280;69929;52.390;13.078;2023-05-23T07:39:21;100849.94;;;17.19;57.55
80574;BME280;69929;52.390;13.078;2023-05-23T07:41:49;100843.66;;;17.44;56.78
80574;BME280;69929;52.390;13.078;2023-05-23T07:44:18;100845.81;;;17.76;56.26
80574;BME280;69929;52.390;13.078;2023-05-23T07:46:47;100842.88;;;17.92;56.26
80574;BME280;69929;52.390;13.078;2023-05-23T07:49:14;100846.75;;;18.23;55.60
80574;BME280;69929;52.390;13.078;2023-05-23T07:51:40;100845.91;;;18.23;56.22
80574;BME280;69929;52.390;13.078;2023-05-23T07:54:07;100839.28;;;18.15;56.59
80574;BME280;69929;52.390;13.078;2023-05-23T07:56:34;100837.69;;;18.60;55.89
80574;BME280;69929;52.390;13.078;2023-05-23T07:59:00;100837.09;;;18.79;55.63
80574;BME280;69929;52.390;13.078;2023-05-23T08:01:27;100846.03;;;18.91;55.54
80574;BME280;69929;52.390;13.078;2023-05-23T08:03:54;100844.69;;;18.96;56.07
80574;BME280;69929;52.390;13.078;2023-05-23T08:06:21;100856.81;;;18.78;56.93
80574;BME280;69929;52.390;13.078;2023-05-23T08:08:48;100854.06;;;18.91;56.74
80574;BME280;69929;52.390;13.078;2023-05-23T08:11:14;100851.38;;;18.91;57.47
80574;BME280;69929;52.390;13.078;2023-05-23T08:13:41;100857.97;;;18.40;59.21
80574;BME280;69929;52.390;13.078;2023-05-23T08:16:07;100866.41;;;18.58;58.94
80574;BME280;69929;52.390;13.078;2023-05-23T08:18:34;100865.50;;;19.15;57.54
80574;BME280;69929;52.390;13.078;2023-05-23T08:21:01;100869.84;;;19.50;57.03
80574;BME280;69929;52.390;13.078;2023-05-23T08:23:28;100870.19;;;20.01;55.68
80574;BME280;69929;52.390;13.078;2023-05-23T08:25:55;100867.88;;;19.52;57.04
80574;BME280;69929;52.390;13.078;2023-05-23T08:28:22;100877.44;;;19.22;58.01
80574;BME280;69929;52.390;13.078;2023-05-23T08:30:49;100876.69;;;19.32;58.25
80574;BME280;69929;52.390;13.078;2023-05-23T08:33:17;100875.84;;;19.31;58.89
80574;BME280;69929;52.390;13.078;2023-05-23T08:35:43;100880.09;;;18.88;60.25
80574;BME280;69929;52.390;13.078;2023-05-23T08:38:10;100878.88;;;19.04;59.88
80574;BME280;69929;52.390;13.078;2023-05-23T08:40:38;100887.16;;;18.89;60.43
80574;BME280;69929;52.390;13.078;2023-05-23T08:43:05;100884.69;;;18.75;61.14
80574;BME280;69929;52.390;13.078;2023-05-23T08:45:32;100885.78;;;18.73;61.09
80574;BME280;69929;52.390;13.078;2023-05-23T08:48:00;100885.88;;;18.60;61.95
80574;BME280;69929;52.390;13.078;2023-05-23T08:50:29;100891.00;;;18.63;61.73
80574;BME280;69929;52.390;13.078;2023-05-23T08:52:57;100891.47;;;18.68;61.45
80574;BME280;69929;52.390;13.078;2023-05-23T08:55:26;100893.94;;;18.82;61.54
80574;BME280;69929;52.390;13.078;2023-05-23T08:57:53;100900.78;;;18.98;60.93
80574;BME280;69929;52.390;13.078;2023-05-23T09:00:20;100898.13;;;19.09;60.70
80574;BME280;69929;52.390;13.078;2023-05-23T09:02:48;100906.66;;;18.92;61.80
80574;BME280;69929;52.390;13.078;2023-05-23T09:05:15;100906.59;;;18.80;62.29
80574;BME280;69929;52.390;13.078;2023-05-23T09:07:44;100908.41;;;18.80;62.83
80574;BME280;69929;52.390;13.078;2023-05-23T09:10:14;100907.44;;;18.81;62.59
80574;BME280;69929;52.390;13.078;2023-05-23T09:12:45;100910.66;;;18.97;62.23
80574;BME280;69929;52.390;13.078;2023-05-23T09:15:12;100906.75;;;18.43;64.29
80574;BME280;69929;52.390;13.078;2023-05-23T09:17:40;100904.78;;;18.81;63.21
80574;BME280;69929;52.390;13.078;2023-05-23T09:20:14;100908.13;;;19.07;62.76
80574;BME280;69929;52.390;13.078;2023-05-23T09:22:46;100915.50;;;18.45;64.84
80574;BME280;69929;52.390;13.078;2023-05-23T09:25:15;100922.50;;;18.24;65.58
80574;BME280;69929;52.390;13.078;2023-05-23T09:27:42;100907.22;;;18.37;65.62
80574;BME280;69929;52.390;13.078;2023-05-23T09:30:13;100914.28;;;18.38;65.93
80574;BME280;69929;52.390;13.078;2023-05-23T09:32:40;100913.50;;;18.60;64.91
80574;BME280;69929;52.390;13.078;2023-05-23T09:35:08;100922.28;;;18.27;66.05
80574;BME280;69929;52.390;13.078;2023-05-23T09:37:44;100917.75;;;17.92;67.53
80574;BME280;69929;52.390;13.078;2023-05-23T09:40:13;100927.28;;;17.70;68.69
80574;BME280;69929;52.390;13.078;2023-05-23T09:42:47;100933.63;;;17.69;69.58
80574;BME280;69929;52.390;13.078;2023-05-23T09:45:15;100935.09;;;17.36;71.33
80574;BME280;69929;52.390;13.078;2023-05-23T09:47:50;100930.59;;;17.24;72.14
80574;BME280;69929;52.390;13.078;2023-05-23T09:50:20;100930.94;;;17.06;72.30
80574;BME280;69929;52.390;13.078;2023-05-23T09:52:47;100938.38;;;16.76;73.86
80574;BME280;69929;52.390;13.078;2023-05-23T09:55:13;100938.31;;;16.90;73.52
80574;BME280;69929;52.390;13.078;2023-05-23T09:57:41;100948.41;;;16.59;74.45
80574;BME280;69929;52.390;13.078;2023-05-23T10:00:09;100939.84;;;16.41;74.52
80574;BME280;69929;52.390;13.078;2023-05-23T10:05:29;100944.69;;;16.34;74.99
80574;BME280;69929;52.390;13.078;2023-05-23T10:08:00;100942.22;;;16.72;73.70
80574;BME280;69929;52.390;13.078;2023-05-23T10:10:30;100943.75;;;16.88;72.42
80574;BME280;69929;52.390;13.078;2023-05-23T10:13:01;100949.63;;;16.41;74.68
80574;BME280;69929;52.390;13.078;2023-05-23T10:15:38;100948.63;;;16.69;74.03
80574;BME280;69929;52.390;13.078;2023-05-23T10:18:09;100949.63;;;16.41;74.00
80574;BME280;69929;52.390;13.078;2023-05-23T10:20:38;100951.91;;;16.20;74.72
80574;BME280;69929;52.390;13.078;2023-05-23T10:23:07;100959.84;;;16.34;74.05
80574;BME280;69929;52.390;13.078;2023-05-23T10:25:34;100959.09;;;16.05;74.71
80574;BME280;69929;52.390;13.078;2023-05-23T10:28:03;100957.31;;;16.45;73.20
80574;BME280;69929;52.390;13.078;2023-05-23T10:30:30;100956.63;;;16.82;71.98
80574;BME280;69929;52.390;13.078;2023-05-23T10:32:58;100955.31;;;16.49;72.38
80574;BME280;69929;52.390;13.078;2023-05-23T10:35:58;100954.63;;;16.32;73.01
80574;BME280;69929;52.390;13.078;2023-05-23T10:41:11;100949.56;;;16.55;72.42
80574;BME280;69929;52.390;13.078;2023-05-23T10:46:50;100955.72;;;16.43;72.41
80574;BME280;69929;52.390;13.078;2023-05-23T10:49:20;100958.13;;;16.20;73.90
80574;BME280;69929;52.390;13.078;2023-05-23T10:51:49;100960.94;;;16.31;73.78
80574;BME280;69929;52.390;13.078;2023-05-23T10:54:19;100959.75;;;16.08;74.53
80574;BME280;69929;52.390;13.078;2023-05-23T10:56:47;100959.81;;;16.21;74.52
80574;BME280;69929;52.390;13.078;2023-05-23T10:59:28;100966.50;;;16.54;72.98
80574;BME280;69929;52.390;13.078;2023-05-23T11:01:55;100962.44;;;16.36;73.55
80574;BME280;69929;52.390;13.078;2023-05-23T11:04:26;100971.66;;;16.57;72.71
80574;BME280;69929;52.390;13.078;2023-05-23T11:06:53;100959.13;;;16.85;71.79
80574;BME280;69929;52.390;13.078;2023-05-23T11:09:20;100968.28;;;16.81;71.34
80574;BME280;69929;52.390;13.078;2023-05-23T11:19:38;100962.56;;;17.25;69.04
80574;BME280;69929;52.390;13.078;2023-05-23T11:22:08;100969.91;;;16.96;69.93
80574;BME280;69929;52.390;13.078;2023-05-23T11:24:50;100965.44;;;17.35;68.69
80574;BME280;69929;52.390;13.078;2023-05-23T11:27:29;100963.44;;;17.13;68.99
80574;BME280;69929;52.390;13.078;2023-05-23T11:30:02;100970.47;;;17.27;68.65
80574;BME280;69929;52.390;13.078;2023-05-23T11:32:30;100965.69;;;17.69;67.11
80574;BME280;69929;52.390;13.078;2023-05-23T11:35:05;100955.91;;;17.44;67.91
80574;BME280;69929;52.390;13.078;2023-05-23T11:37:33;100966.22;;;17.12;68.47
80574;BME280;69929;52.390;13.078;2023-05-23T11:42:55;100968.97;;;17.23;68.97
80574;BME280;69929;52.390;13.078;2023-05-23T11:45:23;100971.53;;;17.12;69.09
80574;BME280;69929;52.390;13.078;2023-05-23T11:47:50;100976.22;;;17.21;68.88
80574;BME280;69929;52.390;13.078;2023-05-23T11:50:17;100976.88;;;16.86;69.49
80574;BME280;69929;52.390;13.078;2023-05-23T11:52:46;100971.84;;;16.94;69.57
80574;BME280;69929;52.390;13.078;2023-05-23T11:55:18;100973.91;;;17.03;69.48
80574;BME280;69929;52.390;13.078;2023-05-23T11:57:45;100975.69;;;16.90;69.47
80574;BME280;69929;52.390;13.078;2023-05-23T12:00:12;100976.59;;;16.76;70.06
80574;BME280;69929;52.390;13.078;2023-05-23T12:02:40;100977.53;;;16.62;70.55
80574;BME280;69929;52.390;13.078;2023-05-23T12:05:09;100974.09;;;17.00;69.75
80574;BME280;69929;52.390;13.078;2023-05-23T12:07:46;100979.09;;;17.18;69.38
80574;BME280;69929;52.390;13.078;2023-05-23T12:10:14;100982.09;;;17.26;68.62
80574;BME280;69929;52.390;13.078;2023-05-23T12:12:50;100976.63;;;17.40;68.08
80574;BME280;69929;52.390;13.078;2023-05-23T12:15:16;100984.97;;;17.49;67.07
80574;BME280;69929;52.390;13.078;2023-05-23T12:17:44;100987.13;;;17.43;67.49
80574;BME280;69929;52.390;13.078;2023-05-23T12:20:12;100987.22;;;17.55;67.21
80574;BME280;69929;52.390;13.078;2023-05-23T12:22:38;100992.03;;;17.50;67.16
80574;BME280;69929;52.390;13.078;2023-05-23T12:25:07;100990.09;;;17.52;67.34
80574;BME280;69929;52.390;13.078;2023-05-23T12:27:34;100997.13;;;17.78;66.62
80574;BME280;69929;52.390;13.078;2023-05-23T12:30:15;100993.69;;;17.76;66.28
80574;BME280;69929;52.390;13.078;2023-05-23T12:32:43;101003.34;;;17.66;66.86
80574;BME280;69929;52.390;13.078;2023-05-23T12:35:12;100997.16;;;17.27;68.88
80574;BME280;69929;52.390;13.078;2023-05-23T12:37:40;101000.72;;;16.75;71.76
80574;BME280;69929;52.390;13.078;2023-05-23T12:40:14;100998.09;;;16.47;73.07
80574;BME280;69929;52.390;13.078;2023-05-23T12:42:55;100998.59;;;16.80;72.25
80574;BME280;69929;52.390;13.078;2023-05-23T12:45:33;101001.72;;;16.46;73.41
80574;BME280;69929;52.390;13.078;2023-05-23T12:48:05;100986.22;;;16.39;73.61
80574;BME280;69929;52.390;13.078;2023-05-23T12:50:32;100998.78;;;16.51;73.58
80574;BME280;69929;52.390;13.078;2023-05-23T12:52:59;101003.09;;;16.39;74.26
80574;BME280;69929;52.390;13.078;2023-05-23T12:55:25;101004.50;;;16.45;73.80
80574;BME280;69929;52.390;13.078;2023-05-23T12:57:52;100994.03;;;16.42;73.22
80574;BME280;69929;52.390;13.078;2023-05-23T13:00:20;100999.16;;;16.45;73.37
80574;BME280;69929;52.390;13.078;2023-05-23T13:02:47;101004.56;;;16.70;72.60
80574;BME280;69929;52.390;13.078;2023-05-23T13:05:14;101000.53;;;16.78;72.09
80574;BME280;69929;52.390;13.078;2023-05-23T13:07:41;100999.88;;;16.74;71.71
80574;BME280;69929;52.390;13.078;2023-05-23T13:10:08;101003.34;;;16.89;71.49
80574;BME280;69929;52.390;13.078;2023-05-23T13:12:35;101002.69;;;16.98;70.81